Querétaro Intercontinental Airport
MMQT : now visible

Airfield :











YOU CAN JOIN US ON...

 
LOGIN :

Register | Disclaimer

   EN    FR    IT 

 









Legend :    VFR   Marginal VFR   IFR   Intensive IFR   Very Intensive IFR
Visi :
Ceiling :
>= 8 km
>= 3000ft
5 to 8 km
1000 to 3000 ft
1500m to 5 km
500 to 1000 ft
800 to 1500m
200 to 500 ft
< 800m
< 200 ft
Symbols :   Thunderstorms  Fog  Heavy snow  Heavy precipitations  Wind > 20 kt






- Airport Elevation : 6296 ft
- IATA code : QRO


MMQT - Querétaro Intercontinental

CURRENT METAR :
  • 030040Z 27005KT 7SM SCT020 26/07 A3012 RMK 8/500

EXPIRED METARs :
  • 022247Z 25011KT 7SM SCT020 29/07 A3011 RMK 8/500

TAF TAF MMQT
Valid from the 02 at 18:00 until the 03 at 18:00 UTC


021627Z 0218/0318 28008KT 6SM HZ SCT020
BECMG 0221/0222 32010KT BKN020CB BKN080
TEMPO 0223/0303 6SM -TSRA
FM030400 00000KT P6SM SCT020 BKN080
BECMG 0307/0308 SCT080
FM031200 27005KT 6SM HZ SCT080



MET'MAP, your aeronautical weather chart ! - Copyright ORBIFLY December 2007 - Disclaimer

ORBIFLY MET'MAP TEAM :

Programming & Development : Alexandra Zaïnal
Concept & original design : Baudouin d'Aumeries
Assistance for programming : Marc-Olivier Méhu
Technical & hardware support : Manuel Goepfert

Contact : metmap@orbifly.com




SOURCES & CREDITS :

   NOAA       Earth
Advisory